Terminal Aerodrome Forecast
Issued by NWS

Current Version | Previous Version | Graphics & Text | Print | Product List | Glossary On
Versions: 1 2 3 4 5 6 7 8 9 10 11 12 13 14 15 16 17 18 19 20 21 22 23 24 25 26 27 28 29 30 31 32 33 34 35 36 37 38 39 40 41 42 43 44 45 46 47 48
000
FTUS41 KRNK 272157 AAA
TAFLWB
TAF AMD
KLWB 272157Z 2722/2818 26010KT P6SM SCT045
     FM272230 27020G40KT 2SM TSRA OVC020CB
     FM272300 24007KT P6SM BKN050
     FM280300 00000KT P6SM OVC030
     FM281300 VRB03KT P6SM VCSH BKN035=

USA.gov is the U.S. government's official web portal to all federal, state and local government web resources and services.